sensor_id;sensor_type;location;lat;lon;timestamp;P1;durP1;ratioP1;P2;durP2;ratioP2
55270;SDS011;41132;47.162;9.470;2023-07-20T00:02:04;5.40;;;2.30;;
55270;SDS011;41132;47.162;9.470;2023-07-20T00:04:30;5.85;;;2.25;;
55270;SDS011;41132;47.162;9.470;2023-07-20T00:06:57;6.65;;;2.28;;
55270;SDS011;41132;47.162;9.470;2023-07-20T00:09:22;6.18;;;2.50;;
55270;SDS011;41132;47.162;9.470;2023-07-20T00:11:48;7.28;;;2.22;;
55270;SDS011;41132;47.162;9.470;2023-07-20T00:14:18;5.78;;;2.20;;
55270;SDS011;41132;47.162;9.470;2023-07-20T00:16:44;7.30;;;2.70;;
55270;SDS011;41132;47.162;9.470;2023-07-20T00:19:11;5.70;;;2.17;;
55270;SDS011;41132;47.162;9.470;2023-07-20T00:21:37;5.20;;;2.30;;
55270;SDS011;41132;47.162;9.470;2023-07-20T00:24:05;5.35;;;2.08;;
55270;SDS011;41132;47.162;9.470;2023-07-20T00:26:31;5.28;;;2.25;;
55270;SDS011;41132;47.162;9.470;2023-07-20T00:28:56;4.40;;;1.83;;
55270;SDS011;41132;47.162;9.470;2023-07-20T00:31:22;7.32;;;2.20;;
55270;SDS011;41132;47.162;9.470;2023-07-20T00:33:47;8.52;;;2.28;;
55270;SDS011;41132;47.162;9.470;2023-07-20T00:36:13;6.15;;;2.63;;
55270;SDS011;41132;47.162;9.470;2023-07-20T00:38:39;5.07;;;2.30;;
55270;SDS011;41132;47.162;9.470;2023-07-20T00:41:04;4.53;;;2.05;;
55270;SDS011;41132;47.162;9.470;2023-07-20T00:43:30;7.70;;;2.45;;
55270;SDS011;41132;47.162;9.470;2023-07-20T00:45:55;6.13;;;2.95;;
55270;SDS011;41132;47.162;9.470;2023-07-20T00:48:21;7.95;;;2.90;;
55270;SDS011;41132;47.162;9.470;2023-07-20T00:50:46;5.75;;;2.28;;
55270;SDS011;41132;47.162;9.470;2023-07-20T00:53:13;5.30;;;2.60;;
55270;SDS011;41132;47.162;9.470;2023-07-20T00:55:39;5.13;;;2.55;;
55270;SDS011;41132;47.162;9.470;2023-07-20T00:58:04;6.00;;;2.47;;
55270;SDS011;41132;47.162;9.470;2023-07-20T01:00:31;5.88;;;2.72;;
55270;SDS011;41132;47.162;9.470;2023-07-20T01:02:56;4.80;;;2.47;;
55270;SDS011;41132;47.162;9.470;2023-07-20T01:05:23;6.82;;;2.67;;
55270;SDS011;41132;47.162;9.470;2023-07-20T01:08:02;7.25;;;2.95;;
55270;SDS011;41132;47.162;9.470;2023-07-20T01:10:42;5.40;;;2.80;;
55270;SDS011;41132;47.162;9.470;2023-07-20T01:13:11;7.53;;;2.20;;
55270;SDS011;41132;47.162;9.470;2023-07-20T01:15:39;6.63;;;2.72;;
55270;SDS011;41132;47.162;9.470;2023-07-20T01:18:05;5.20;;;2.38;;
55270;SDS011;41132;47.162;9.470;2023-07-20T01:20:31;8.13;;;2.80;;
55270;SDS011;41132;47.162;9.470;2023-07-20T01:23:16;5.88;;;2.42;;
55270;SDS011;41132;47.162;9.470;2023-07-20T01:26:02;6.85;;;2.40;;
55270;SDS011;41132;47.162;9.470;2023-07-20T01:31:15;5.78;;;2.50;;
55270;SDS011;41132;47.162;9.470;2023-07-20T01:33:41;6.00;;;2.67;;
55270;SDS011;41132;47.162;9.470;2023-07-20T01:36:08;7.00;;;2.78;;
55270;SDS011;41132;47.162;9.470;2023-07-20T01:38:36;5.95;;;2.15;;
55270;SDS011;41132;47.162;9.470;2023-07-20T01:41:02;7.72;;;2.50;;
55270;SDS011;41132;47.162;9.470;2023-07-20T01:43:29;5.57;;;3.03;;
55270;SDS011;41132;47.162;9.470;2023-07-20T01:45:54;6.47;;;2.38;;
55270;SDS011;41132;47.162;9.470;2023-07-20T01:48:20;5.68;;;2.53;;
55270;SDS011;41132;47.162;9.470;2023-07-20T01:50:45;5.75;;;2.63;;
55270;SDS011;41132;47.162;9.470;2023-07-20T01:53:10;6.60;;;2.80;;
55270;SDS011;41132;47.162;9.470;2023-07-20T01:55:36;7.32;;;2.80;;
55270;SDS011;41132;47.162;9.470;2023-07-20T01:58:02;6.53;;;2.88;;
55270;SDS011;41132;47.162;9.470;2023-07-20T02:00:28;5.85;;;2.70;;
55270;SDS011;41132;47.162;9.470;2023-07-20T02:02:54;7.55;;;2.78;;
55270;SDS011;41132;47.162;9.470;2023-07-20T02:05:19;6.80;;;3.00;;
55270;SDS011;41132;47.162;9.470;2023-07-20T02:07:45;5.50;;;2.80;;
55270;SDS011;41132;47.162;9.470;2023-07-20T02:10:10;5.60;;;2.65;;
55270;SDS011;41132;47.162;9.470;2023-07-20T02:12:36;5.95;;;3.15;;
55270;SDS011;41132;47.162;9.470;2023-07-20T02:15:02;6.07;;;2.80;;
55270;SDS011;41132;47.162;9.470;2023-07-20T02:17:28;6.68;;;3.40;;
55270;SDS011;41132;47.162;9.470;2023-07-20T02:19:54;8.57;;;3.25;;
55270;SDS011;41132;47.162;9.470;2023-07-20T02:22:20;5.93;;;2.95;;
55270;SDS011;41132;47.162;9.470;2023-07-20T02:24:45;5.55;;;2.78;;
55270;SDS011;41132;47.162;9.470;2023-07-20T02:27:11;7.13;;;2.85;;
55270;SDS011;41132;47.162;9.470;2023-07-20T02:29:37;6.25;;;2.67;;
55270;SDS011;41132;47.162;9.470;2023-07-20T02:32:02;6.25;;;2.85;;
55270;SDS011;41132;47.162;9.470;2023-07-20T02:34:28;6.30;;;3.10;;
55270;SDS011;41132;47.162;9.470;2023-07-20T02:36:54;8.25;;;3.10;;
55270;SDS011;41132;47.162;9.470;2023-07-20T02:39:23;7.15;;;3.67;;
55270;SDS011;41132;47.162;9.470;2023-07-20T02:41:48;6.80;;;2.80;;
55270;SDS011;41132;47.162;9.470;2023-07-20T02:44:14;6.65;;;2.83;;
55270;SDS011;41132;47.162;9.470;2023-07-20T02:46:39;6.50;;;3.20;;
55270;SDS011;41132;47.162;9.470;2023-07-20T02:49:05;6.10;;;2.90;;
55270;SDS011;41132;47.162;9.470;2023-07-20T02:51:31;6.68;;;3.15;;
55270;SDS011;41132;47.162;9.470;2023-07-20T02:54:00;6.45;;;2.92;;
55270;SDS011;41132;47.162;9.470;2023-07-20T02:56:26;6.03;;;2.70;;
55270;SDS011;41132;47.162;9.470;2023-07-20T02:58:52;6.07;;;2.90;;
55270;SDS011;41132;47.162;9.470;2023-07-20T03:01:17;7.72;;;2.70;;
55270;SDS011;41132;47.162;9.470;2023-07-20T03:03:43;7.05;;;2.95;;
55270;SDS011;41132;47.162;9.470;2023-07-20T03:06:12;6.75;;;3.25;;
55270;SDS011;41132;47.162;9.470;2023-07-20T03:08:41;8.00;;;2.63;;
55270;SDS011;41132;47.162;9.470;2023-07-20T03:11:12;6.18;;;2.20;;
55270;SDS011;41132;47.162;9.470;2023-07-20T03:13:42;7.00;;;2.85;;
55270;SDS011;41132;47.162;9.470;2023-07-20T03:16:08;6.15;;;2.72;;
55270;SDS011;41132;47.162;9.470;2023-07-20T03:18:39;5.43;;;2.53;;
55270;SDS011;41132;47.162;9.470;2023-07-20T03:21:05;6.18;;;2.55;;
55270;SDS011;41132;47.162;9.470;2023-07-20T03:23:32;5.57;;;2.50;;
55270;SDS011;41132;47.162;9.470;2023-07-20T03:25:57;7.63;;;2.70;;
55270;SDS011;41132;47.162;9.470;2023-07-20T03:28:23;7.03;;;2.42;;
55270;SDS011;41132;47.162;9.470;2023-07-20T03:30:58;8.15;;;2.58;;
55270;SDS011;41132;47.162;9.470;2023-07-20T03:33:27;5.20;;;2.40;;
55270;SDS011;41132;47.162;9.470;2023-07-20T03:35:54;7.65;;;2.67;;
55270;SDS011;41132;47.162;9.470;2023-07-20T03:38:20;5.80;;;2.38;;
55270;SDS011;41132;47.162;9.470;2023-07-20T03:40:52;5.78;;;2.70;;
55270;SDS011;41132;47.162;9.470;2023-07-20T03:43:19;4.82;;;2.15;;
55270;SDS011;41132;47.162;9.470;2023-07-20T03:45:46;5.60;;;2.22;;
55270;SDS011;41132;47.162;9.470;2023-07-20T03:48:12;5.43;;;2.40;;
55270;SDS011;41132;47.162;9.470;2023-07-20T03:50:38;8.63;;;2.15;;
55270;SDS011;41132;47.162;9.470;2023-07-20T03:53:04;4.90;;;1.95;;
55270;SDS011;41132;47.162;9.470;2023-07-20T03:55:30;6.07;;;2.05;;
55270;SDS011;41132;47.162;9.470;2023-07-20T03:57:55;5.07;;;2.15;;
55270;SDS011;41132;47.162;9.470;2023-07-20T04:00:21;5.65;;;2.03;;
55270;SDS011;41132;47.162;9.470;2023-07-20T04:02:46;4.38;;;2.00;;
55270;SDS011;41132;47.162;9.470;2023-07-20T04:05:12;5.65;;;2.25;;
55270;SDS011;41132;47.162;9.470;2023-07-20T04:07:37;5.30;;;2.00;;
55270;SDS011;41132;47.162;9.470;2023-07-20T04:10:03;4.47;;;1.83;;
55270;SDS011;41132;47.162;9.470;2023-07-20T04:12:29;5.55;;;2.00;;
55270;SDS011;41132;47.162;9.470;2023-07-20T04:14:54;7.13;;;2.47;;
55270;SDS011;41132;47.162;9.470;2023-07-20T04:17:19;6.20;;;2.30;;
55270;SDS011;41132;47.162;9.470;2023-07-20T04:19:45;6.80;;;2.42;;
55270;SDS011;41132;47.162;9.470;2023-07-20T04:22:10;4.80;;;1.95;;
55270;SDS011;41132;47.162;9.470;2023-07-20T04:24:35;3.90;;;1.85;;
55270;SDS011;41132;47.162;9.470;2023-07-20T04:27:01;5.88;;;2.13;;
55270;SDS011;41132;47.162;9.470;2023-07-20T04:29:26;5.00;;;2.35;;
55270;SDS011;41132;47.162;9.470;2023-07-20T04:31:52;5.30;;;2.00;;
55270;SDS011;41132;47.162;9.470;2023-07-20T04:34:17;7.03;;;2.13;;
55270;SDS011;41132;47.162;9.470;2023-07-20T04:36:43;6.38;;;1.88;;
55270;SDS011;41132;47.162;9.470;2023-07-20T04:39:09;5.63;;;2.10;;
55270;SDS011;41132;47.162;9.470;2023-07-20T04:41:35;6.10;;;2.20;;
55270;SDS011;41132;47.162;9.470;2023-07-20T04:44:00;5.60;;;2.05;;
55270;SDS011;41132;47.162;9.470;2023-07-20T04:46:26;4.65;;;1.80;;
55270;SDS011;41132;47.162;9.470;2023-07-20T04:48:51;6.47;;;1.90;;
55270;SDS011;41132;47.162;9.470;2023-07-20T04:51:16;6.60;;;1.90;;
55270;SDS011;41132;47.162;9.470;2023-07-20T04:53:45;6.45;;;1.90;;
55270;SDS011;41132;47.162;9.470;2023-07-20T04:56:11;5.15;;;2.22;;
55270;SDS011;41132;47.162;9.470;2023-07-20T04:58:37;4.57;;;1.85;;
55270;SDS011;41132;47.162;9.470;2023-07-20T05:01:02;4.88;;;1.80;;
55270;SDS011;41132;47.162;9.470;2023-07-20T05:03:28;8.70;;;2.38;;
55270;SDS011;41132;47.162;9.470;2023-07-20T05:05:54;5.05;;;1.85;;
55270;SDS011;41132;47.162;9.470;2023-07-20T05:08:19;4.30;;;2.00;;
55270;SDS011;41132;47.162;9.470;2023-07-20T05:10:47;9.30;;;1.90;;
55270;SDS011;41132;47.162;9.470;2023-07-20T05:13:12;5.10;;;1.83;;
55270;SDS011;41132;47.162;9.470;2023-07-20T05:15:38;4.65;;;1.85;;
55270;SDS011;41132;47.162;9.470;2023-07-20T05:18:04;4.60;;;1.58;;
55270;SDS011;41132;47.162;9.470;2023-07-20T05:20:29;4.68;;;1.63;;
55270;SDS011;41132;47.162;9.470;2023-07-20T05:22:56;4.93;;;1.73;;
55270;SDS011;41132;47.162;9.470;2023-07-20T05:25:22;6.22;;;2.05;;
55270;SDS011;41132;47.162;9.470;2023-07-20T05:27:48;5.63;;;2.08;;
55270;SDS011;41132;47.162;9.470;2023-07-20T05:30:14;4.55;;;1.92;;
55270;SDS011;41132;47.162;9.470;2023-07-20T05:32:39;4.22;;;1.85;;
55270;SDS011;41132;47.162;9.470;2023-07-20T05:35:05;6.20;;;1.60;;
55270;SDS011;41132;47.162;9.470;2023-07-20T05:37:30;4.90;;;2.05;;
55270;SDS011;41132;47.162;9.470;2023-07-20T05:39:56;5.55;;;2.15;;
55270;SDS011;41132;47.162;9.470;2023-07-20T05:42:22;6.28;;;2.35;;
55270;SDS011;41132;47.162;9.470;2023-07-20T05:44:47;5.47;;;2.05;;
55270;SDS011;41132;47.162;9.470;2023-07-20T05:47:14;7.65;;;1.90;;
55270;SDS011;41132;47.162;9.470;2023-07-20T05:49:40;4.35;;;1.73;;
55270;SDS011;41132;47.162;9.470;2023-07-20T05:52:05;6.15;;;1.88;;
55270;SDS011;41132;47.162;9.470;2023-07-20T05:54:31;8.18;;;2.20;;
55270;SDS011;41132;47.162;9.470;2023-07-20T05:56:56;6.63;;;2.25;;
55270;SDS011;41132;47.162;9.470;2023-07-20T05:59:21;4.03;;;1.70;;
55270;SDS011;41132;47.162;9.470;2023-07-20T06:01:48;3.97;;;1.88;;
55270;SDS011;41132;47.162;9.470;2023-07-20T06:04:14;6.20;;;1.88;;
55270;SDS011;41132;47.162;9.470;2023-07-20T06:06:39;4.13;;;1.55;;
55270;SDS011;41132;47.162;9.470;2023-07-20T06:09:05;5.07;;;1.83;;
55270;SDS011;41132;47.162;9.470;2023-07-20T06:11:32;7.72;;;2.28;;
55270;SDS011;41132;47.162;9.470;2023-07-20T06:13:58;5.20;;;2.00;;
55270;SDS011;41132;47.162;9.470;2023-07-20T06:16:24;6.35;;;2.38;;
55270;SDS011;41132;47.162;9.470;2023-07-20T06:18:49;6.35;;;2.00;;
55270;SDS011;41132;47.162;9.470;2023-07-20T06:21:15;4.05;;;1.63;;
55270;SDS011;41132;47.162;9.470;2023-07-20T06:23:40;6.68;;;2.20;;
55270;SDS011;41132;47.162;9.470;2023-07-20T06:26:06;5.40;;;1.75;;
55270;SDS011;41132;47.162;9.470;2023-07-20T06:28:32;5.47;;;2.00;;
55270;SDS011;41132;47.162;9.470;2023-07-20T06:31:01;4.30;;;1.90;;
55270;SDS011;41132;47.162;9.470;2023-07-20T06:33:28;3.83;;;1.60;;
55270;SDS011;41132;47.162;9.470;2023-07-20T06:35:53;4.70;;;2.08;;
55270;SDS011;41132;47.162;9.470;2023-07-20T06:38:19;4.22;;;1.85;;
55270;SDS011;41132;47.162;9.470;2023-07-20T06:40:47;4.15;;;1.95;;
55270;SDS011;41132;47.162;9.470;2023-07-20T06:43:13;5.78;;;2.00;;
55270;SDS011;41132;47.162;9.470;2023-07-20T06:45:38;7.00;;;1.90;;
55270;SDS011;41132;47.162;9.470;2023-07-20T06:48:04;5.80;;;1.88;;
55270;SDS011;41132;47.162;9.470;2023-07-20T06:50:29;6.18;;;1.83;;
55270;SDS011;41132;47.162;9.470;2023-07-20T06:52:55;6.78;;;2.35;;
55270;SDS011;41132;47.162;9.470;2023-07-20T06:55:20;4.85;;;2.20;;
55270;SDS011;41132;47.162;9.470;2023-07-20T06:57:47;6.50;;;2.28;;
55270;SDS011;41132;47.162;9.470;2023-07-20T07:00:12;5.57;;;1.95;;
55270;SDS011;41132;47.162;9.470;2023-07-20T07:02:38;4.60;;;1.80;;
55270;SDS011;41132;47.162;9.470;2023-07-20T07:05:03;4.95;;;1.77;;
55270;SDS011;41132;47.162;9.470;2023-07-20T07:07:29;6.22;;;2.15;;
55270;SDS011;41132;47.162;9.470;2023-07-20T07:09:55;5.10;;;1.75;;
55270;SDS011;41132;47.162;9.470;2023-07-20T07:12:20;5.68;;;1.98;;
55270;SDS011;41132;47.162;9.470;2023-07-20T07:14:45;4.10;;;1.77;;
55270;SDS011;41132;47.162;9.470;2023-07-20T07:17:11;5.78;;;2.05;;
55270;SDS011;41132;47.162;9.470;2023-07-20T07:19:36;7.07;;;2.10;;
55270;SDS011;41132;47.162;9.470;2023-07-20T07:22:02;4.28;;;1.50;;
55270;SDS011;41132;47.162;9.470;2023-07-20T07:24:28;4.40;;;1.90;;
55270;SDS011;41132;47.162;9.470;2023-07-20T07:26:58;4.55;;;2.05;;
55270;SDS011;41132;47.162;9.470;2023-07-20T07:29:24;3.75;;;1.90;;
55270;SDS011;41132;47.162;9.470;2023-07-20T07:31:50;5.78;;;2.22;;
55270;SDS011;41132;47.162;9.470;2023-07-20T07:34:15;4.63;;;1.95;;
55270;SDS011;41132;47.162;9.470;2023-07-20T07:36:41;3.63;;;1.70;;
55270;SDS011;41132;47.162;9.470;2023-07-20T07:39:06;5.28;;;2.10;;
55270;SDS011;41132;47.162;9.470;2023-07-20T07:41:31;6.38;;;1.73;;
55270;SDS011;41132;47.162;9.470;2023-07-20T07:43:57;4.75;;;1.90;;
55270;SDS011;41132;47.162;9.470;2023-07-20T07:46:22;5.70;;;2.33;;
55270;SDS011;41132;47.162;9.470;2023-07-20T07:48:48;8.77;;;2.20;;
55270;SDS011;41132;47.162;9.470;2023-07-20T07:51:13;4.15;;;1.95;;
55270;SDS011;41132;47.162;9.470;2023-07-20T07:53:40;5.90;;;1.90;;
55270;SDS011;41132;47.162;9.470;2023-07-20T07:56:06;4.53;;;2.08;;
55270;SDS011;41132;47.162;9.470;2023-07-20T07:58:32;6.38;;;2.53;;
55270;SDS011;41132;47.162;9.470;2023-07-20T08:00:58;4.47;;;1.90;;
55270;SDS011;41132;47.162;9.470;2023-07-20T08:03:23;4.65;;;2.03;;
55270;SDS011;41132;47.162;9.470;2023-07-20T08:05:49;5.63;;;2.20;;
55270;SDS011;41132;47.162;9.470;2023-07-20T08:08:15;4.97;;;2.40;;
55270;SDS011;41132;47.162;9.470;2023-07-20T08:10:40;5.90;;;2.35;;
55270;SDS011;41132;47.162;9.470;2023-07-20T08:13:05;4.53;;;1.95;;
55270;SDS011;41132;47.162;9.470;2023-07-20T08:15:31;5.72;;;2.22;;
55270;SDS011;41132;47.162;9.470;2023-07-20T08:17:56;5.68;;;2.20;;
55270;SDS011;41132;47.162;9.470;2023-07-20T08:20:21;5.32;;;2.20;;
55270;SDS011;41132;47.162;9.470;2023-07-20T08:22:51;4.60;;;2.25;;
55270;SDS011;41132;47.162;9.470;2023-07-20T08:25:18;5.50;;;2.50;;
55270;SDS011;41132;47.162;9.470;2023-07-20T08:27:43;4.50;;;2.10;;
55270;SDS011;41132;47.162;9.470;2023-07-20T08:30:11;5.55;;;2.47;;
55270;SDS011;41132;47.162;9.470;2023-07-20T08:32:36;5.53;;;2.47;;
55270;SDS011;41132;47.162;9.470;2023-07-20T08:35:02;5.18;;;2.25;;
55270;SDS011;41132;47.162;9.470;2023-07-20T08:37:28;5.88;;;3.08;;
55270;SDS011;41132;47.162;9.470;2023-07-20T08:39:53;6.90;;;2.60;;
55270;SDS011;41132;47.162;9.470;2023-07-20T08:42:18;6.13;;;2.58;;
55270;SDS011;41132;47.162;9.470;2023-07-20T08:44:44;5.00;;;2.53;;
55270;SDS011;41132;47.162;9.470;2023-07-20T08:47:11;4.82;;;2.38;;
55270;SDS011;41132;47.162;9.470;2023-07-20T08:49:39;7.65;;;2.40;;
55270;SDS011;41132;47.162;9.470;2023-07-20T08:52:04;5.65;;;2.58;;
55270;SDS011;41132;47.162;9.470;2023-07-20T08:54:32;7.72;;;2.53;;
55270;SDS011;41132;47.162;9.470;2023-07-20T08:57:03;6.10;;;2.63;;
55270;SDS011;41132;47.162;9.470;2023-07-20T08:59:29;5.00;;;2.60;;
55270;SDS011;41132;47.162;9.470;2023-07-20T09:01:59;4.45;;;2.47;;
55270;SDS011;41132;47.162;9.470;2023-07-20T09:04:25;5.95;;;2.50;;
55270;SDS011;41132;47.162;9.470;2023-07-20T09:06:51;6.40;;;2.30;;
55270;SDS011;41132;47.162;9.470;2023-07-20T09:09:17;6.97;;;2.30;;
55270;SDS011;41132;47.162;9.470;2023-07-20T09:11:42;6.20;;;2.35;;
55270;SDS011;41132;47.162;9.470;2023-07-20T09:14:11;4.63;;;1.95;;
55270;SDS011;41132;47.162;9.470;2023-07-20T09:16:57;5.68;;;2.10;;
55270;SDS011;41132;47.162;9.470;2023-07-20T09:19:23;5.15;;;2.35;;
55270;SDS011;41132;47.162;9.470;2023-07-20T09:21:48;6.25;;;2.78;;
55270;SDS011;41132;47.162;9.470;2023-07-20T09:24:15;15.40;;;2.90;;
55270;SDS011;41132;47.162;9.470;2023-07-20T09:26:42;6.43;;;2.58;;
55270;SDS011;41132;47.162;9.470;2023-07-20T09:29:09;6.22;;;2.22;;
55270;SDS011;41132;47.162;9.470;2023-07-20T09:31:35;5.82;;;2.70;;
55270;SDS011;41132;47.162;9.470;2023-07-20T09:34:00;6.50;;;2.38;;
55270;SDS011;41132;47.162;9.470;2023-07-20T09:36:26;4.53;;;2.60;;
55270;SDS011;41132;47.162;9.470;2023-07-20T09:38:53;6.03;;;2.40;;
55270;SDS011;41132;47.162;9.470;2023-07-20T09:41:19;5.85;;;2.30;;
55270;SDS011;41132;47.162;9.470;2023-07-20T09:43:46;6.43;;;2.78;;
55270;SDS011;41132;47.162;9.470;2023-07-20T09:46:12;6.15;;;2.28;;
55270;SDS011;41132;47.162;9.470;2023-07-20T09:48:37;6.32;;;2.60;;
55270;SDS011;41132;47.162;9.470;2023-07-20T09:51:03;4.90;;;2.30;;
55270;SDS011;41132;47.162;9.470;2023-07-20T09:53:30;5.07;;;2.50;;
55270;SDS011;41132;47.162;9.470;2023-07-20T09:55:57;6.40;;;2.60;;
55270;SDS011;41132;47.162;9.470;2023-07-20T09:58:23;4.18;;;2.50;;
55270;SDS011;41132;47.162;9.470;2023-07-20T10:00:51;5.50;;;2.92;;
55270;SDS011;41132;47.162;9.470;2023-07-20T10:03:19;4.57;;;2.15;;
55270;SDS011;41132;47.162;9.470;2023-07-20T10:05:47;6.82;;;2.47;;
55270;SDS011;41132;47.162;9.470;2023-07-20T10:08:16;5.93;;;2.57;;
55270;SDS011;41132;47.162;9.470;2023-07-20T10:10:45;4.78;;;2.20;;
55270;SDS011;41132;47.162;9.470;2023-07-20T10:13:21;4.85;;;2.33;;
55270;SDS011;41132;47.162;9.470;2023-07-20T10:16:11;5.82;;;2.22;;
55270;SDS011;41132;47.162;9.470;2023-07-20T10:18:49;4.75;;;2.10;;
55270;SDS011;41132;47.162;9.470;2023-07-20T10:21:20;5.55;;;2.25;;
55270;SDS011;41132;47.162;9.470;2023-07-20T10:23:48;6.45;;;2.60;;
55270;SDS011;41132;47.162;9.470;2023-07-20T10:26:14;7.93;;;2.38;;
55270;SDS011;41132;47.162;9.470;2023-07-20T10:28:39;7.60;;;2.60;;
55270;SDS011;41132;47.162;9.470;2023-07-20T10:31:07;4.70;;;2.10;;
55270;SDS011;41132;47.162;9.470;2023-07-20T10:33:34;5.70;;;2.90;;
55270;SDS011;41132;47.162;9.470;2023-07-20T10:36:01;8.02;;;2.85;;
55270;SDS011;41132;47.162;9.470;2023-07-20T10:41:20;5.93;;;2.90;;
55270;SDS011;41132;47.162;9.470;2023-07-20T10:43:49;5.25;;;2.17;;
55270;SDS011;41132;47.162;9.470;2023-07-20T10:46:25;5.63;;;2.28;;
55270;SDS011;41132;47.162;9.470;2023-07-20T10:49:04;5.35;;;2.50;;
55270;SDS011;41132;47.162;9.470;2023-07-20T10:51:38;4.50;;;2.13;;
55270;SDS011;41132;47.162;9.470;2023-07-20T10:56:40;7.13;;;2.60;;
55270;SDS011;41132;47.162;9.470;2023-07-20T10:59:17;5.88;;;2.25;;
55270;SDS011;41132;47.162;9.470;2023-07-20T11:01:47;5.93;;;2.15;;
55270;SDS011;41132;47.162;9.470;2023-07-20T11:04:14;6.15;;;2.85;;
55270;SDS011;41132;47.162;9.470;2023-07-20T11:06:45;4.85;;;2.35;;
55270;SDS011;41132;47.162;9.470;2023-07-20T11:09:12;6.03;;;2.25;;
55270;SDS011;41132;47.162;9.470;2023-07-20T11:11:43;6.45;;;2.30;;
55270;SDS011;41132;47.162;9.470;2023-07-20T11:14:11;6.40;;;2.50;;
55270;SDS011;41132;47.162;9.470;2023-07-20T11:16:51;5.22;;;2.28;;
55270;SDS011;41132;47.162;9.470;2023-07-20T11:21:54;7.30;;;2.25;;
55270;SDS011;41132;47.162;9.470;2023-07-20T11:24:23;7.43;;;3.70;;
55270;SDS011;41132;47.162;9.470;2023-07-20T11:26:52;6.25;;;3.63;;
55270;SDS011;41132;47.162;9.470;2023-07-20T11:29:19;7.35;;;2.58;;
55270;SDS011;41132;47.162;9.470;2023-07-20T11:31:47;5.30;;;2.05;;
55270;SDS011;41132;47.162;9.470;2023-07-20T11:34:13;5.13;;;2.20;;
55270;SDS011;41132;47.162;9.470;2023-07-20T11:36:41;8.95;;;2.88;;
55270;SDS011;41132;47.162;9.470;2023-07-20T11:39:11;5.28;;;2.38;;
55270;SDS011;41132;47.162;9.470;2023-07-20T11:41:38;5.78;;;2.28;;
55270;SDS011;41132;47.162;9.470;2023-07-20T11:44:08;5.20;;;1.98;;
55270;SDS011;41132;47.162;9.470;2023-07-20T11:46:38;5.53;;;2.30;;
55270;SDS011;41132;47.162;9.470;2023-07-20T11:49:04;5.03;;;2.30;;
55270;SDS011;41132;47.162;9.470;2023-07-20T11:51:30;6.00;;;2.28;;
55270;SDS011;41132;47.162;9.470;2023-07-20T11:53:57;6.13;;;2.20;;
55270;SDS011;41132;47.162;9.470;2023-07-20T11:56:24;6.07;;;2.25;;
55270;SDS011;41132;47.162;9.470;2023-07-20T11:58:50;5.05;;;2.10;;
55270;SDS011;41132;47.162;9.470;2023-07-20T12:01:19;5.72;;;2.13;;
55270;SDS011;41132;47.162;9.470;2023-07-20T12:03:45;4.95;;;2.22;;
55270;SDS011;41132;47.162;9.470;2023-07-20T12:06:13;4.97;;;2.00;;
55270;SDS011;41132;47.162;9.470;2023-07-20T12:08:38;4.43;;;1.83;;
55270;SDS011;41132;47.162;9.470;2023-07-20T12:11:07;6.03;;;2.20;;
55270;SDS011;41132;47.162;9.470;2023-07-20T12:13:37;6.10;;;2.50;;
55270;SDS011;41132;47.162;9.470;2023-07-20T12:16:13;3.80;;;1.60;;
55270;SDS011;41132;47.162;9.470;2023-07-20T12:18:40;6.15;;;2.05;;
55270;SDS011;41132;47.162;9.470;2023-07-20T12:21:06;5.35;;;2.20;;
55270;SDS011;41132;47.162;9.470;2023-07-20T12:23:40;6.15;;;2.00;;
55270;SDS011;41132;47.162;9.470;2023-07-20T12:26:07;5.60;;;2.13;;
55270;SDS011;41132;47.162;9.470;2023-07-20T12:28:35;6.32;;;2.63;;
55270;SDS011;41132;47.162;9.470;2023-07-20T12:31:04;6.18;;;2.30;;
55270;SDS011;41132;47.162;9.470;2023-07-20T12:33:29;4.90;;;2.15;;
55270;SDS011;41132;47.162;9.470;2023-07-20T12:35:55;5.70;;;1.90;;
55270;SDS011;41132;47.162;9.470;2023-07-20T12:38:23;4.70;;;1.90;;
55270;SDS011;41132;47.162;9.470;2023-07-20T12:40:48;5.88;;;1.85;;
55270;SDS011;41132;47.162;9.470;2023-07-20T12:43:14;6.43;;;1.70;;
55270;SDS011;41132;47.162;9.470;2023-07-20T12:45:39;5.88;;;1.90;;
55270;SDS011;41132;47.162;9.470;2023-07-20T12:48:05;5.47;;;2.30;;
55270;SDS011;41132;47.162;9.470;2023-07-20T12:50:31;5.18;;;1.80;;
55270;SDS011;41132;47.162;9.470;2023-07-20T12:52:56;6.68;;;1.90;;
55270;SDS011;41132;47.162;9.470;2023-07-20T12:55:22;5.13;;;2.05;;
55270;SDS011;41132;47.162;9.470;2023-07-20T12:57:47;8.35;;;2.33;;
55270;SDS011;41132;47.162;9.470;2023-07-20T13:00:13;5.15;;;2.20;;
55270;SDS011;41132;47.162;9.470;2023-07-20T13:02:39;3.90;;;1.85;;
55270;SDS011;41132;47.162;9.470;2023-07-20T13:05:06;5.35;;;2.20;;
55270;SDS011;41132;47.162;9.470;2023-07-20T13:07:32;6.72;;;2.25;;
55270;SDS011;41132;47.162;9.470;2023-07-20T13:09:59;5.30;;;2.20;;
55270;SDS011;41132;47.162;9.470;2023-07-20T13:12:29;5.80;;;2.00;;
55270;SDS011;41132;47.162;9.470;2023-07-20T13:14:56;4.25;;;1.88;;
55270;SDS011;41132;47.162;9.470;2023-07-20T13:17:22;5.57;;;2.13;;
55270;SDS011;41132;47.162;9.470;2023-07-20T13:19:48;5.43;;;2.08;;
55270;SDS011;41132;47.162;9.470;2023-07-20T13:22:13;5.30;;;1.92;;
55270;SDS011;41132;47.162;9.470;2023-07-20T13:24:39;6.43;;;1.98;;
55270;SDS011;41132;47.162;9.470;2023-07-20T13:27:05;5.35;;;2.13;;
55270;SDS011;41132;47.162;9.470;2023-07-20T13:29:34;5.40;;;2.10;;
55270;SDS011;41132;47.162;9.470;2023-07-20T13:31:59;5.28;;;2.20;;
55270;SDS011;41132;47.162;9.470;2023-07-20T13:34:25;6.18;;;2.15;;
55270;SDS011;41132;47.162;9.470;2023-07-20T13:36:51;7.25;;;2.20;;
55270;SDS011;41132;47.162;9.470;2023-07-20T13:39:16;4.63;;;2.00;;
55270;SDS011;41132;47.162;9.470;2023-07-20T13:41:42;4.25;;;1.83;;
55270;SDS011;41132;47.162;9.470;2023-07-20T13:44:07;4.97;;;2.13;;
55270;SDS011;41132;47.162;9.470;2023-07-20T13:46:32;4.90;;;2.00;;
55270;SDS011;41132;47.162;9.470;2023-07-20T13:48:59;7.30;;;2.05;;
55270;SDS011;41132;47.162;9.470;2023-07-20T13:51:24;8.13;;;2.13;;
55270;SDS011;41132;47.162;9.470;2023-07-20T13:53:50;10.77;;;2.05;;
55270;SDS011;41132;47.162;9.470;2023-07-20T13:56:15;8.05;;;2.08;;
55270;SDS011;41132;47.162;9.470;2023-07-20T13:58:41;4.88;;;2.10;;
55270;SDS011;41132;47.162;9.470;2023-07-20T14:01:06;5.50;;;2.80;;
55270;SDS011;41132;47.162;9.470;2023-07-20T14:03:31;5.15;;;2.22;;
55270;SDS011;41132;47.162;9.470;2023-07-20T14:05:57;7.28;;;2.42;;
55270;SDS011;41132;47.162;9.470;2023-07-20T14:08:22;5.40;;;2.10;;
55270;SDS011;41132;47.162;9.470;2023-07-20T14:10:48;4.07;;;1.90;;
55270;SDS011;41132;47.162;9.470;2023-07-20T14:13:13;4.55;;;2.00;;
55270;SDS011;41132;47.162;9.470;2023-07-20T14:15:39;5.18;;;2.30;;
55270;SDS011;41132;47.162;9.470;2023-07-20T14:18:04;5.30;;;2.13;;
55270;SDS011;41132;47.162;9.470;2023-07-20T14:20:30;5.55;;;2.10;;
55270;SDS011;41132;47.162;9.470;2023-07-20T14:22:55;6.20;;;2.03;;
55270;SDS011;41132;47.162;9.470;2023-07-20T14:25:21;5.55;;;2.25;;
55270;SDS011;41132;47.162;9.470;2023-07-20T14:27:46;6.20;;;2.10;;
55270;SDS011;41132;47.162;9.470;2023-07-20T14:30:11;6.50;;;2.17;;
55270;SDS011;41132;47.162;9.470;2023-07-20T14:32:38;6.70;;;2.10;;
55270;SDS011;41132;47.162;9.470;2023-07-20T14:35:03;10.82;;;2.25;;
55270;SDS011;41132;47.162;9.470;2023-07-20T14:37:29;5.75;;;2.17;;
55270;SDS011;41132;47.162;9.470;2023-07-20T14:39:54;8.65;;;2.42;;
55270;SDS011;41132;47.162;9.470;2023-07-20T14:42:20;4.90;;;2.10;;
55270;SDS011;41132;47.162;9.470;2023-07-20T14:44:45;5.35;;;2.30;;
55270;SDS011;41132;47.162;9.470;2023-07-20T14:47:11;6.97;;;2.30;;
55270;SDS011;41132;47.162;9.470;2023-07-20T14:49:36;8.18;;;2.28;;
55270;SDS011;41132;47.162;9.470;2023-07-20T14:52:02;5.53;;;2.03;;
55270;SDS011;41132;47.162;9.470;2023-07-20T14:54:28;4.55;;;1.90;;
55270;SDS011;41132;47.162;9.470;2023-07-20T14:56:54;5.55;;;2.40;;